createdAt,value
2022-10-21T00:01:49.708Z,16.10
2022-10-21T00:04:16.317Z,16.10
2022-10-21T00:06:42.872Z,16.10
2022-10-21T00:09:09.498Z,16.10
2022-10-21T00:11:36.243Z,16.10
2022-10-21T00:14:03.254Z,16.10
2022-10-21T00:16:30.004Z,16.10
2022-10-21T00:18:56.863Z,16.10
2022-10-21T00:21:23.716Z,16.10
2022-10-21T00:23:50.391Z,16.10
2022-10-21T00:26:18.679Z,16.10
2022-10-21T00:28:45.511Z,16.10
2022-10-21T00:31:14.399Z,16.10
2022-10-21T00:33:41.905Z,16.10
2022-10-21T00:36:14.739Z,16.10
2022-10-21T00:38:42.813Z,16.00
2022-10-21T00:41:09.449Z,16.10
2022-10-21T00:43:54.913Z,16.10
2022-10-21T00:46:37.601Z,16.10
2022-10-21T00:49:12.156Z,16.00
2022-10-21T00:51:38.984Z,16.00
2022-10-21T00:54:06.864Z,16.00
2022-10-21T00:56:35.548Z,16.10
2022-10-21T00:59:04.493Z,16.00
2022-10-21T01:01:31.215Z,16.00
2022-10-21T01:03:57.908Z,16.00
2022-10-21T01:06:25.632Z,16.00
2022-10-21T01:08:54.485Z,16.00
2022-10-21T01:11:23.101Z,16.00
2022-10-21T01:14:13.632Z,16.00
2022-10-21T01:17:26.616Z,16.00
2022-10-21T01:20:25.289Z,15.90
2022-10-21T01:23:29.431Z,15.90
2022-10-21T01:26:24.332Z,15.90
2022-10-21T01:29:12.457Z,15.80
2022-10-21T01:32:00.976Z,15.80
2022-10-21T01:34:33.612Z,15.80
2022-10-21T01:37:25.427Z,15.80
2022-10-21T01:39:55.803Z,15.80
2022-10-21T01:42:30.424Z,15.70
2022-10-21T01:45:00.652Z,15.70
2022-10-21T01:47:35.683Z,15.70
2022-10-21T01:50:10.770Z,15.70
2022-10-21T01:52:41.215Z,15.70
2022-10-21T01:55:14.524Z,15.70
2022-10-21T01:57:48.940Z,15.70
2022-10-21T02:00:16.134Z,15.60
2022-10-21T02:02:47.398Z,15.60
2022-10-21T02:05:18.918Z,15.60
2022-10-21T02:07:45.735Z,15.60
2022-10-21T02:10:12.356Z,15.50
2022-10-21T02:12:42.046Z,15.50
2022-10-21T02:15:10.553Z,15.50
2022-10-21T02:17:40.395Z,15.50
2022-10-21T02:20:12.018Z,15.50
2022-10-21T02:22:41.965Z,15.50
2022-10-21T02:25:32.723Z,15.40
2022-10-21T02:27:59.376Z,15.40
2022-10-21T02:30:30.729Z,15.40
2022-10-21T02:32:59.735Z,15.40
2022-10-21T02:35:41.959Z,15.40
2022-10-21T02:38:18.463Z,15.30
2022-10-21T02:40:52.136Z,15.30
2022-10-21T02:43:46.707Z,15.20
2022-10-21T02:46:14.413Z,15.30
2022-10-21T02:48:45.065Z,15.20
2022-10-21T02:51:12.390Z,15.20
2022-10-21T02:53:39.161Z,15.20
2022-10-21T02:56:06.005Z,15.10
2022-10-21T02:58:32.990Z,15.20
2022-10-21T03:00:59.833Z,15.20
2022-10-21T03:03:26.602Z,15.20
2022-10-21T03:05:53.179Z,15.10
2022-10-21T03:08:19.772Z,15.10
2022-10-21T03:10:52.952Z,15.10
2022-10-21T03:13:20.945Z,15.10
2022-10-21T03:15:51.657Z,15.10
2022-10-21T03:18:18.673Z,15.10
2022-10-21T03:20:49.852Z,15.00
2022-10-21T03:23:17.739Z,15.00
2022-10-21T03:25:44.375Z,15.00
2022-10-21T03:28:11.113Z,15.00
2022-10-21T03:30:37.894Z,15.00
2022-10-21T03:33:04.485Z,14.90
2022-10-21T03:35:31.085Z,14.90
2022-10-21T03:40:30.229Z,14.90
2022-10-21T03:42:58.193Z,14.80
2022-10-21T03:45:25.106Z,14.80
2022-10-21T03:47:52.164Z,14.80
2022-10-21T03:50:23.751Z,14.80
2022-10-21T03:52:52.063Z,14.80
2022-10-21T03:55:20.756Z,14.80
2022-10-21T03:57:48.015Z,14.70
2022-10-21T04:00:15.288Z,14.70
2022-10-21T04:02:42.193Z,14.70
2022-10-21T04:05:09.716Z,14.70
2022-10-21T04:07:36.336Z,14.70
2022-10-21T04:10:03.764Z,14.70
2022-10-21T04:12:30.344Z,14.60
2022-10-21T04:14:56.895Z,14.60
2022-10-21T04:17:23.504Z,14.60
2022-10-21T04:19:50.149Z,14.60
2022-10-21T04:22:16.719Z,14.60
2022-10-21T04:24:43.286Z,14.60
2022-10-21T04:27:09.882Z,14.60
2022-10-21T04:29:36.513Z,14.50
2022-10-21T04:32:03.349Z,14.50
2022-10-21T04:34:29.926Z,14.50
2022-10-21T04:36:59.789Z,14.50
2022-10-21T04:39:29.175Z,14.50
2022-10-21T04:41:56.373Z,14.40
2022-10-21T04:44:23.020Z,14.40
2022-10-21T04:46:49.679Z,14.40
2022-10-21T04:49:16.320Z,14.40
2022-10-21T04:51:42.997Z,14.40
2022-10-21T04:54:09.635Z,14.40
2022-10-21T04:56:36.239Z,14.40
2022-10-21T04:59:03.013Z,14.30
2022-10-21T05:01:29.625Z,14.30
2022-10-21T05:03:56.269Z,14.30
2022-10-21T05:06:23.008Z,14.30
2022-10-21T05:08:49.694Z,14.30
2022-10-21T05:11:16.288Z,14.20
2022-10-21T05:13:42.868Z,14.20
2022-10-21T05:16:09.500Z,14.20
2022-10-21T05:18:36.063Z,14.20
2022-10-21T05:21:03.083Z,14.20
2022-10-21T05:23:30.465Z,14.20
2022-10-21T05:25:57.316Z,14.20
2022-10-21T05:28:24.962Z,14.20
2022-10-21T05:30:53.342Z,14.20
2022-10-21T05:33:19.980Z,14.20
2022-10-21T05:35:56.628Z,14.20
2022-10-21T05:38:23.213Z,14.20
2022-10-21T05:40:49.816Z,14.20
2022-10-21T05:43:16.383Z,14.10
2022-10-21T05:45:42.994Z,14.10
2022-10-21T05:48:09.572Z,14.10
2022-10-21T05:50:36.150Z,14.10
2022-10-21T05:53:02.837Z,14.10
2022-10-21T05:55:32.119Z,14.10
2022-10-21T05:57:59.527Z,14.10
2022-10-21T06:00:26.293Z,14.10
2022-10-21T06:02:52.921Z,14.10
2022-10-21T06:05:20.895Z,14.10
2022-10-21T06:07:48.149Z,14.10
2022-10-21T06:10:16.540Z,14.10
2022-10-21T06:12:44.023Z,14.00
2022-10-21T06:15:10.845Z,14.00
2022-10-21T06:17:37.831Z,14.00
2022-10-21T06:20:05.009Z,14.00
2022-10-21T06:22:31.596Z,14.00
2022-10-21T06:24:58.164Z,14.00
2022-10-21T06:27:24.783Z,14.00
2022-10-21T06:29:51.425Z,14.00
2022-10-21T06:32:17.984Z,14.00
2022-10-21T06:34:44.549Z,14.00
2022-10-21T06:37:11.115Z,14.00
2022-10-21T06:39:37.659Z,14.00
2022-10-21T06:42:04.220Z,14.00
2022-10-21T06:44:30.876Z,14.00
2022-10-21T06:46:57.433Z,13.90
2022-10-21T06:49:24.054Z,13.90
2022-10-21T06:51:50.672Z,13.90
2022-10-21T06:54:17.399Z,13.90
2022-10-21T06:56:44.037Z,13.90
2022-10-21T06:59:10.752Z,13.90
2022-10-21T07:01:48.468Z,13.90
2022-10-21T07:04:23.911Z,13.90
2022-10-21T07:06:50.470Z,13.90
2022-10-21T07:09:17.391Z,13.90
2022-10-21T07:11:44.581Z,13.90
2022-10-21T07:14:12.508Z,13.90
2022-10-21T07:16:39.129Z,13.90
2022-10-21T07:19:06.657Z,13.90
2022-10-21T07:21:33.671Z,13.90
2022-10-21T07:24:01.014Z,14.00
2022-10-21T07:26:31.011Z,13.90
2022-10-21T07:29:00.244Z,14.00
2022-10-21T07:31:28.831Z,14.00
2022-10-21T07:33:55.558Z,14.00
2022-10-21T07:36:25.445Z,14.10
2022-10-21T07:38:53.351Z,14.10
2022-10-21T07:41:21.417Z,14.10
2022-10-21T07:43:49.120Z,14.10
2022-10-21T07:46:17.212Z,14.10
2022-10-21T07:48:43.883Z,14.10
2022-10-21T07:51:13.154Z,14.10
2022-10-21T07:53:40.284Z,14.10
2022-10-21T07:56:13.025Z,14.20
2022-10-21T07:58:39.636Z,14.20
2022-10-21T08:01:08.650Z,14.20
2022-10-21T08:03:35.499Z,14.20
2022-10-21T08:06:02.840Z,14.20
2022-10-21T08:08:30.697Z,14.20
2022-10-21T08:10:57.743Z,14.30
2022-10-21T08:13:25.222Z,14.30
2022-10-21T08:15:53.402Z,14.40
2022-10-21T08:18:21.164Z,14.40
2022-10-21T08:20:49.365Z,14.40
2022-10-21T08:23:18.436Z,14.50
2022-10-21T08:25:56.340Z,14.50
2022-10-21T08:28:25.325Z,14.50
2022-10-21T08:30:52.300Z,14.50
2022-10-21T08:33:19.222Z,14.60
2022-10-21T08:35:45.796Z,14.60
2022-10-21T08:38:12.639Z,14.60
2022-10-21T08:40:45.305Z,14.60
2022-10-21T08:43:23.387Z,14.70
2022-10-21T08:46:00.845Z,14.70
2022-10-21T08:48:35.523Z,14.70
2022-10-21T08:51:06.006Z,14.80
2022-10-21T08:53:41.374Z,14.80
2022-10-21T08:56:19.403Z,14.90
2022-10-21T08:58:49.455Z,14.90
2022-10-21T09:01:30.557Z,14.90
2022-10-21T09:04:08.869Z,15.00
2022-10-21T09:07:06.864Z,15.00
2022-10-21T09:09:54.856Z,15.10
2022-10-21T09:12:24.501Z,15.10
2022-10-21T09:15:10.328Z,15.20
2022-10-21T09:17:58.331Z,15.20
2022-10-21T09:20:56.092Z,15.20
2022-10-21T09:24:20.958Z,15.30
2022-10-21T09:26:52.616Z,15.30
2022-10-21T09:29:32.266Z,15.40
2022-10-21T09:32:18.972Z,15.40
2022-10-21T09:35:17.456Z,15.50
2022-10-21T09:37:53.912Z,15.60
2022-10-21T09:40:23.917Z,15.60
2022-10-21T09:42:56.528Z,15.60
2022-10-21T09:45:39.892Z,15.60
2022-10-21T09:48:18.826Z,15.70
2022-10-21T09:50:48.519Z,15.70
2022-10-21T09:53:38.253Z,15.80
2022-10-21T09:56:13.252Z,15.90
2022-10-21T09:58:42.807Z,15.90
2022-10-21T10:01:22.061Z,16.00
2022-10-21T10:03:52.467Z,16.10
2022-10-21T10:06:51.661Z,16.10
2022-10-21T10:09:26.607Z,16.20
2022-10-21T10:12:02.189Z,16.20
2022-10-21T10:14:28.778Z,16.30
2022-10-21T10:16:57.027Z,16.30
2022-10-21T10:19:28.644Z,16.40
2022-10-21T10:22:15.980Z,16.50
2022-10-21T10:24:44.101Z,16.60
2022-10-21T10:27:28.603Z,16.60
2022-10-21T10:29:58.658Z,16.70
2022-10-21T10:32:31.515Z,16.70
2022-10-21T10:35:03.127Z,16.80
2022-10-21T10:37:37.962Z,16.90
2022-10-21T10:40:08.692Z,17.00
2022-10-21T10:42:42.672Z,17.00
2022-10-21T10:45:20.279Z,17.10
2022-10-21T10:47:53.312Z,17.20
2022-10-21T10:50:37.935Z,17.20
2022-10-21T10:53:32.415Z,17.30
2022-10-21T10:56:20.873Z,17.40
2022-10-21T10:59:05.857Z,17.50
2022-10-21T11:01:39.388Z,17.60
2022-10-21T11:04:16.284Z,17.60
2022-10-21T11:06:48.252Z,17.70
2022-10-21T11:09:15.969Z,17.70
2022-10-21T11:11:48.198Z,17.80
2022-10-21T11:14:20.419Z,17.80
2022-10-21T11:17:00.700Z,17.90
2022-10-21T11:19:33.543Z,18.00
2022-10-21T11:22:26.330Z,18.00
2022-10-21T11:25:13.167Z,18.10
2022-10-21T11:27:51.166Z,18.20
2022-10-21T11:30:31.503Z,18.20
2022-10-21T11:33:00.816Z,18.30
2022-10-21T11:35:42.068Z,18.30
2022-10-21T11:38:31.204Z,18.40
2022-10-21T11:41:09.873Z,18.50
2022-10-21T11:44:02.526Z,18.60
2022-10-21T11:46:44.970Z,18.70
2022-10-21T11:49:24.825Z,18.80
2022-10-21T11:52:20.140Z,18.80
2022-10-21T11:55:09.883Z,18.90
2022-10-21T11:57:49.373Z,19.10
2022-10-21T12:00:18.160Z,19.20
2022-10-21T12:04:13.020Z,19.20
2022-10-21T12:07:25.603Z,19.30
2022-10-21T12:13:36.821Z,19.60
2022-10-21T12:16:31.445Z,19.70
2022-10-21T12:19:33.458Z,19.80
2022-10-21T12:22:07.901Z,20.00
2022-10-21T12:40:42.930Z,20.50
2022-10-21T12:44:30.417Z,20.50
2022-10-21T12:47:39.801Z,20.60
2022-10-21T12:50:36.629Z,20.70
2022-10-21T12:53:41.187Z,20.70
2022-10-21T12:56:37.739Z,20.70
2022-10-21T12:59:32.588Z,20.80
2022-10-21T13:02:15.309Z,20.90
2022-10-21T13:08:49.643Z,21.00
2022-10-21T13:12:56.203Z,21.10
2022-10-21T13:15:34.899Z,21.20
2022-10-21T13:24:16.587Z,21.40
2022-10-21T13:27:13.777Z,21.50
2022-10-21T13:29:56.550Z,21.60
2022-10-21T13:32:51.881Z,21.60
2022-10-21T13:46:43.251Z,21.80
2022-10-21T13:49:37.310Z,21.90
2022-10-21T13:55:28.252Z,21.90
2022-10-21T14:01:29.398Z,22.00
2022-10-21T14:07:36.620Z,22.00
2022-10-21T14:10:10.323Z,22.00
2022-10-21T14:13:01.593Z,21.90
2022-10-21T14:15:45.950Z,22.00
2022-10-21T14:31:26.871Z,21.80
2022-10-21T14:33:53.649Z,21.70
2022-10-21T14:37:12.087Z,21.70
2022-10-21T14:40:09.806Z,21.60
2022-10-21T14:45:53.827Z,21.50
2022-10-21T14:57:10.705Z,21.40
2022-10-21T14:59:49.911Z,21.30
2022-10-21T15:02:22.848Z,21.20
2022-10-21T15:04:53.036Z,21.20
2022-10-21T15:07:39.452Z,21.20
2022-10-21T15:10:06.027Z,21.10
2022-10-21T15:12:51.325Z,21.10
2022-10-21T15:15:54.207Z,21.00
2022-10-21T15:18:33.382Z,21.00
2022-10-21T15:21:04.078Z,20.90
2022-10-21T15:23:37.412Z,20.90
2022-10-21T15:26:11.330Z,20.80
2022-10-21T15:28:38.046Z,20.70
2022-10-21T15:31:15.168Z,20.70
2022-10-21T15:33:41.745Z,20.70
2022-10-21T15:36:13.360Z,20.60
2022-10-21T15:38:47.203Z,20.60
2022-10-21T15:41:16.864Z,20.60
2022-10-21T15:43:50.294Z,20.50
2022-10-21T15:46:16.894Z,20.50
2022-10-21T15:48:43.465Z,20.40
2022-10-21T15:51:10.061Z,20.40
2022-10-21T15:53:38.724Z,20.30
2022-10-21T15:56:14.218Z,20.30
2022-10-21T15:58:41.231Z,20.20
2022-10-21T16:01:13.748Z,20.20
2022-10-21T16:03:41.369Z,20.10
2022-10-21T16:06:19.573Z,20.10
2022-10-21T16:08:46.739Z,20.10
2022-10-21T16:11:25.587Z,20.00
2022-10-21T16:14:01.561Z,19.90
2022-10-21T16:16:28.227Z,19.90
2022-10-21T16:18:54.952Z,19.80
2022-10-21T16:21:23.597Z,19.70
2022-10-21T16:23:50.475Z,19.70
2022-10-21T16:26:22.711Z,19.70
2022-10-21T16:28:50.410Z,19.70
2022-10-21T16:31:17.740Z,19.60
2022-10-21T16:33:45.091Z,19.50
2022-10-21T16:36:19.301Z,19.40
2022-10-21T16:38:47.614Z,19.40
2022-10-21T16:41:17.357Z,19.30
2022-10-21T16:43:44.368Z,19.30
2022-10-21T16:46:29.198Z,19.20
2022-10-21T16:48:57.923Z,19.20
2022-10-21T16:51:28.444Z,19.10
2022-10-21T16:53:55.245Z,19.10
2022-10-21T16:56:21.893Z,19.00
2022-10-21T16:58:48.620Z,18.90
2022-10-21T17:01:25.092Z,18.90
2022-10-21T17:03:52.555Z,18.80
2022-10-21T17:06:22.236Z,18.80
2022-10-21T17:08:50.622Z,18.70
2022-10-21T17:11:23.353Z,18.60
2022-10-21T17:13:50.553Z,18.60
2022-10-21T17:16:21.263Z,18.60
2022-10-21T17:18:48.439Z,18.50
2022-10-21T17:21:23.528Z,18.50
2022-10-21T17:23:51.258Z,18.40
2022-10-21T17:26:18.880Z,18.40
2022-10-21T17:28:46.312Z,18.20
2022-10-21T17:31:21.379Z,18.20
2022-10-21T17:33:49.833Z,18.10
2022-10-21T17:36:16.548Z,18.10
2022-10-21T17:38:43.367Z,18.10
2022-10-21T17:41:16.389Z,18.00
2022-10-21T17:43:43.301Z,18.00
2022-10-21T17:46:18.734Z,17.90
2022-10-21T17:48:49.442Z,17.90
2022-10-21T17:51:16.164Z,17.80
2022-10-21T17:53:42.786Z,17.70
2022-10-21T17:56:11.380Z,17.70
2022-10-21T17:58:38.068Z,17.70
2022-10-21T18:01:12.662Z,17.60
2022-10-21T18:03:39.953Z,17.60
2022-10-21T18:06:09.308Z,17.50
2022-10-21T18:08:36.669Z,17.50
2022-10-21T18:11:07.320Z,17.50
2022-10-21T18:13:34.685Z,17.40
2022-10-21T18:16:16.515Z,17.40
2022-10-21T18:18:43.846Z,17.30
2022-10-21T18:21:13.597Z,17.30
2022-10-21T18:23:42.329Z,17.20
2022-10-21T18:26:13.696Z,17.20
2022-10-21T18:28:40.689Z,17.20
2022-10-21T18:31:07.361Z,17.10
2022-10-21T18:33:34.206Z,17.10
2022-10-21T18:36:11.733Z,17.10
2022-10-21T18:38:38.349Z,17.00
2022-10-21T18:41:25.531Z,17.00
2022-10-21T18:43:55.155Z,16.90
2022-10-21T18:46:22.413Z,16.90
2022-10-21T18:48:49.883Z,16.90
2022-10-21T18:51:19.152Z,16.80
2022-10-21T18:53:49.834Z,16.80
2022-10-21T18:56:18.719Z,16.80
2022-10-21T18:58:45.414Z,16.80
2022-10-21T19:01:15.159Z,16.70
2022-10-21T19:03:42.431Z,16.70
2022-10-21T19:06:30.948Z,16.70
2022-10-21T19:08:58.187Z,16.70
2022-10-21T19:11:24.957Z,16.60
2022-10-21T19:13:54.992Z,16.60
2022-10-21T19:16:21.912Z,16.60
2022-10-21T19:18:48.590Z,16.60
2022-10-21T19:21:20.839Z,16.50
2022-10-21T19:23:47.773Z,16.50
2022-10-21T19:26:14.678Z,16.50
2022-10-21T19:28:41.419Z,16.50
2022-10-21T19:31:11.541Z,16.40
2022-10-21T19:33:39.193Z,16.40
2022-10-21T19:36:07.043Z,16.40
2022-10-21T19:38:50.020Z,16.40
2022-10-21T19:41:20.343Z,16.40
2022-10-21T19:43:48.320Z,16.30
2022-10-21T19:46:20.051Z,16.30
2022-10-21T19:48:49.706Z,16.20
2022-10-21T19:51:18.489Z,16.20
2022-10-21T19:53:46.248Z,16.20
2022-10-21T19:56:14.629Z,16.20
2022-10-21T19:58:43.767Z,16.20
2022-10-21T20:01:12.871Z,16.20
2022-10-21T20:03:41.563Z,16.20
2022-10-21T20:06:10.271Z,16.10
2022-10-21T20:08:39.973Z,16.10
2022-10-21T20:11:11.272Z,16.10
2022-10-21T20:13:37.898Z,16.10
2022-10-21T20:16:04.805Z,16.10
2022-10-21T20:18:31.825Z,16.10
2022-10-21T20:20:58.402Z,16.10
2022-10-21T20:23:25.766Z,16.00
2022-10-21T20:25:57.810Z,16.00
2022-10-21T20:28:26.473Z,16.00
2022-10-21T20:31:05.472Z,16.00
2022-10-21T20:33:35.591Z,16.00
2022-10-21T20:36:07.401Z,15.90
2022-10-21T20:38:34.421Z,15.90
2022-10-21T20:41:06.274Z,15.90
2022-10-21T20:43:37.706Z,15.90
2022-10-21T20:46:06.663Z,15.90
2022-10-21T20:48:34.388Z,15.80
2022-10-21T20:51:16.477Z,15.90
2022-10-21T20:53:51.508Z,15.90
2022-10-21T20:56:19.184Z,15.80
2022-10-21T20:58:46.985Z,15.80
2022-10-21T21:01:20.195Z,15.80
2022-10-21T21:03:51.935Z,15.80
2022-10-21T21:06:19.447Z,15.70
2022-10-21T21:08:49.340Z,15.70
2022-10-21T21:11:25.433Z,15.70
2022-10-21T21:13:52.158Z,15.70
2022-10-21T21:16:21.558Z,15.70
2022-10-21T21:18:53.909Z,15.70
2022-10-21T21:21:22.084Z,15.70
2022-10-21T21:23:48.837Z,15.70
2022-10-21T21:26:22.328Z,15.70
2022-10-21T21:28:50.908Z,15.60
2022-10-21T21:31:18.593Z,15.70
2022-10-21T21:33:45.339Z,15.60
2022-10-21T21:36:14.117Z,15.60
2022-10-21T21:38:41.291Z,15.60
2022-10-21T21:41:10.613Z,15.60
2022-10-21T21:43:38.070Z,15.60
2022-10-21T21:46:05.023Z,15.60
2022-10-21T21:48:32.400Z,15.60
2022-10-21T21:51:07.855Z,15.60
2022-10-21T21:53:34.411Z,15.60
2022-10-21T21:56:03.438Z,15.60
2022-10-21T21:58:30.609Z,15.60
2022-10-21T22:00:57.496Z,15.60
2022-10-21T22:03:24.042Z,15.60
2022-10-21T22:05:50.652Z,15.60
2022-10-21T22:08:17.225Z,15.50
2022-10-21T22:10:43.840Z,15.50
2022-10-21T22:13:12.601Z,15.50
2022-10-21T22:15:54.389Z,15.50
2022-10-21T22:18:21.131Z,15.50
2022-10-21T22:20:47.909Z,15.50
2022-10-21T22:23:14.591Z,15.50
2022-10-21T22:25:41.173Z,15.50
2022-10-21T22:28:07.734Z,15.50
2022-10-21T22:30:34.292Z,15.50
2022-10-21T22:33:00.898Z,15.40
2022-10-21T22:35:28.223Z,15.40
2022-10-21T22:37:54.989Z,15.50
2022-10-21T22:40:21.598Z,15.40
2022-10-21T22:42:48.193Z,15.40
2022-10-21T22:45:15.138Z,15.40
2022-10-21T22:47:42.120Z,15.40
2022-10-21T22:50:09.231Z,15.40
2022-10-21T22:52:35.879Z,15.40
2022-10-21T22:55:02.672Z,15.40
2022-10-21T22:57:29.437Z,15.30
2022-10-21T22:59:56.048Z,15.40
2022-10-21T23:02:22.831Z,15.30
2022-10-21T23:04:49.387Z,15.40
2022-10-21T23:07:16.021Z,15.40
2022-10-21T23:09:42.601Z,15.30
2022-10-21T23:12:09.236Z,15.40
2022-10-21T23:14:35.834Z,15.40
2022-10-21T23:17:02.401Z,15.30
2022-10-21T23:19:28.996Z,15.40
2022-10-21T23:21:55.611Z,15.40
2022-10-21T23:24:22.223Z,15.40
2022-10-21T23:26:48.983Z,15.40
2022-10-21T23:29:15.572Z,15.40
2022-10-21T23:31:42.193Z,15.40
2022-10-21T23:34:09.441Z,15.40
2022-10-21T23:36:36.226Z,15.40
2022-10-21T23:39:03.611Z,15.40
2022-10-21T23:41:30.314Z,15.40
2022-10-21T23:43:56.920Z,15.40
2022-10-21T23:46:23.862Z,15.40
2022-10-21T23:48:50.524Z,15.40
2022-10-21T23:51:17.277Z,15.40
2022-10-21T23:53:43.938Z,15.40
2022-10-21T23:56:10.507Z,15.40
2022-10-21T23:58:37.103Z,15.40
